createdAt,value
2024-04-13T00:00:56.125Z,34.55
2024-04-13T00:03:25.138Z,34.69
2024-04-13T00:05:52.716Z,34.61
2024-04-13T00:08:20.144Z,34.53
2024-04-13T00:10:47.665Z,34.55
2024-04-13T00:13:15.983Z,34.57
2024-04-13T00:15:43.437Z,34.60
2024-04-13T00:18:11.072Z,34.53
2024-04-13T00:20:38.587Z,34.57
2024-04-13T00:23:06.017Z,34.50
2024-04-13T00:25:33.508Z,34.53
2024-04-13T00:28:00.944Z,34.43
2024-04-13T00:30:28.394Z,34.60
2024-04-13T00:32:55.957Z,34.47
2024-04-13T00:35:24.053Z,34.45
2024-04-13T00:37:51.685Z,34.51
2024-04-13T00:40:19.163Z,34.45
2024-04-13T00:42:46.586Z,34.40
2024-04-13T00:45:14.084Z,34.22
2024-04-13T00:47:41.969Z,34.04
2024-04-13T00:50:13.268Z,34.13
2024-04-13T00:52:44.439Z,34.09
2024-04-13T00:55:11.971Z,34.04
2024-04-13T00:57:40.494Z,33.99
2024-04-13T01:00:08.456Z,33.85
2024-04-13T01:02:35.943Z,34.05
2024-04-13T01:05:03.429Z,34.04
2024-04-13T01:07:30.891Z,33.85
2024-04-13T01:09:59.581Z,33.83
2024-04-13T01:12:27.897Z,33.85
2024-04-13T01:14:56.011Z,33.86
2024-04-13T01:17:23.558Z,33.84
2024-04-13T01:19:51.021Z,33.94
2024-04-13T01:22:20.124Z,34.04
2024-04-13T01:24:47.616Z,34.13
2024-04-13T01:27:15.105Z,34.06
2024-04-13T01:29:42.572Z,34.06
2024-04-13T01:32:10.069Z,34.03
2024-04-13T01:34:37.542Z,34.12
2024-04-13T01:37:05.134Z,34.10
2024-04-13T01:39:32.993Z,34.26
2024-04-13T01:42:00.522Z,34.01
2024-04-13T01:44:28.323Z,33.96
2024-04-13T01:46:59.537Z,33.85
2024-04-13T01:49:26.975Z,34.00
2024-04-13T01:51:54.445Z,33.92
2024-04-13T01:54:21.902Z,33.89
2024-04-13T01:56:49.442Z,33.75
2024-04-13T01:59:16.893Z,33.75
2024-04-13T02:01:44.331Z,33.80
2024-04-13T02:04:12.449Z,33.85
2024-04-13T02:06:40.210Z,33.74
2024-04-13T02:09:07.885Z,33.81
2024-04-13T02:11:35.317Z,33.98
2024-04-13T02:14:02.774Z,33.95
2024-04-13T02:16:30.691Z,34.00
2024-04-13T02:18:58.235Z,34.01
2024-04-13T02:21:25.894Z,34.10
2024-04-13T02:23:55.059Z,33.95
2024-04-13T02:26:22.540Z,34.08
2024-04-13T02:28:50.073Z,34.06
2024-04-13T02:31:18.349Z,34.02
2024-04-13T02:33:46.002Z,34.00
2024-04-13T02:36:14.048Z,33.98
2024-04-13T02:38:43.150Z,33.97
2024-04-13T02:41:10.781Z,34.02
2024-04-13T02:43:38.364Z,34.05
2024-04-13T02:46:10.421Z,34.06
2024-04-13T02:48:43.130Z,33.91
2024-04-13T02:51:11.431Z,33.93
2024-04-13T02:53:39.082Z,34.00
2024-04-13T02:56:07.788Z,34.00
2024-04-13T02:58:35.385Z,34.01
2024-04-13T03:01:03.905Z,33.96
2024-04-13T03:03:31.781Z,34.03
2024-04-13T03:06:04.678Z,33.86
2024-04-13T03:08:32.376Z,33.96
2024-04-13T03:11:00.956Z,33.94
2024-04-13T03:13:29.152Z,33.99
2024-04-13T03:16:01.017Z,33.90
2024-04-13T03:18:28.629Z,33.85
2024-04-13T03:20:56.500Z,33.85
2024-04-13T03:23:24.768Z,33.95
2024-04-13T03:25:52.329Z,33.92
2024-04-13T03:28:29.231Z,34.10
2024-04-13T03:30:56.908Z,34.26
2024-04-13T03:33:25.086Z,34.27
2024-04-13T03:35:52.852Z,34.40
2024-04-13T03:38:20.506Z,34.37
2024-04-13T03:40:48.121Z,34.35
2024-04-13T03:43:16.300Z,34.37
2024-04-13T03:45:53.135Z,34.48
2024-04-13T03:48:21.035Z,34.58
2024-04-13T03:50:48.803Z,34.62
2024-04-13T03:53:16.477Z,34.39
2024-04-13T03:55:44.125Z,34.55
2024-04-13T03:58:11.768Z,34.25
2024-04-13T04:00:39.557Z,34.31
2024-04-13T04:03:07.306Z,34.29
2024-04-13T04:05:35.030Z,34.46
2024-04-13T04:08:02.689Z,34.30
2024-04-13T04:10:30.396Z,34.33
2024-04-13T04:13:02.272Z,34.22
2024-04-13T04:15:30.228Z,34.27
2024-04-13T04:17:58.102Z,34.33
2024-04-13T04:20:26.140Z,34.30
2024-04-13T04:22:53.953Z,34.23
2024-04-13T04:25:21.724Z,34.15
2024-04-13T04:27:51.249Z,34.02
2024-04-13T04:30:21.264Z,33.97
2024-04-13T04:32:51.387Z,33.89
2024-04-13T04:35:21.294Z,33.86
2024-04-13T04:37:51.237Z,34.05
2024-04-13T04:40:24.305Z,34.05
2024-04-13T04:42:55.001Z,33.98
2024-04-13T04:45:24.647Z,33.99
2024-04-13T04:47:56.960Z,34.01
2024-04-13T04:50:28.285Z,33.77
2024-04-13T04:52:58.433Z,33.53
2024-04-13T04:55:29.175Z,33.44
2024-04-13T04:57:59.598Z,33.16
2024-04-13T05:00:30.353Z,32.95
2024-04-13T05:03:00.488Z,32.66
2024-04-13T05:05:30.701Z,32.40
2024-04-13T05:08:00.445Z,31.92
2024-04-13T05:10:31.344Z,31.16
2024-04-13T05:13:03.350Z,30.37
2024-04-13T05:15:34.422Z,29.58
2024-04-13T05:18:06.534Z,29.10
2024-04-13T05:20:38.414Z,28.47
2024-04-13T05:23:09.363Z,28.13
2024-04-13T05:25:39.509Z,27.63
2024-04-13T05:35:49.744Z,25.14
2024-04-13T05:38:17.233Z,24.52
2024-04-13T05:40:44.751Z,23.87
2024-04-13T05:43:13.356Z,23.29
2024-04-13T05:45:41.238Z,22.75
2024-04-13T05:48:08.857Z,22.38
2024-04-13T05:50:36.442Z,21.99
2024-04-13T05:53:04.319Z,21.49
2024-04-13T05:55:32.522Z,21.14
2024-04-13T05:57:59.970Z,20.88
2024-04-13T06:00:27.787Z,20.65
2024-04-13T06:02:55.433Z,20.57
2024-04-13T06:05:23.220Z,20.72
2024-04-13T06:07:54.472Z,20.40
2024-04-13T06:10:22.305Z,20.24
2024-04-13T06:12:49.782Z,19.98
2024-04-13T06:15:17.875Z,19.68
2024-04-13T06:17:45.441Z,19.36
2024-04-13T06:20:12.903Z,18.74
2024-04-13T06:22:40.376Z,18.05
2024-04-13T06:32:51.976Z,15.73
2024-04-13T06:42:58.341Z,15.64
2024-04-13T06:45:25.897Z,15.57
2024-04-13T06:47:53.454Z,15.86
2024-04-13T06:50:20.984Z,15.59
2024-04-13T06:52:48.778Z,15.92
2024-04-13T06:55:17.865Z,16.19
2024-04-13T06:57:45.378Z,16.40
2024-04-13T07:00:13.335Z,16.33
2024-04-13T07:02:41.566Z,16.45
2024-04-13T07:05:09.349Z,16.68
2024-04-13T07:07:38.010Z,16.46
2024-04-13T07:10:06.545Z,16.59
2024-04-13T07:12:34.300Z,16.83
2024-04-13T07:15:02.149Z,16.77
2024-04-13T07:17:29.848Z,16.88
2024-04-13T07:21:06.881Z,18.28
2024-04-13T07:23:34.359Z,17.54
2024-04-13T07:26:02.410Z,17.64
2024-04-13T07:28:31.235Z,17.44
2024-04-13T07:30:59.592Z,17.73
2024-04-13T07:33:27.572Z,17.70
2024-04-13T07:43:38.996Z,18.07
2024-04-13T07:46:06.644Z,18.51
2024-04-13T07:48:34.320Z,18.77
2024-04-13T07:51:03.262Z,18.99
2024-04-13T07:53:32.032Z,19.26
2024-04-13T07:56:00.017Z,19.42
2024-04-13T07:58:27.574Z,19.56
2024-04-13T08:00:55.182Z,19.46
2024-04-13T08:03:24.876Z,19.53
2024-04-13T08:05:52.635Z,19.71
2024-04-13T08:08:20.253Z,19.60
2024-04-13T08:10:48.142Z,19.46
2024-04-13T08:13:16.612Z,19.36
2024-04-13T08:15:44.345Z,19.39
2024-04-13T08:18:12.037Z,19.22
2024-04-13T08:20:40.364Z,19.20
2024-04-13T08:23:08.790Z,19.25
2024-04-13T08:25:36.333Z,19.24
2024-04-13T08:28:04.282Z,19.26
2024-04-13T08:30:32.037Z,19.09
2024-04-13T08:33:00.514Z,19.03
2024-04-13T08:35:28.257Z,19.33
2024-04-13T08:37:55.717Z,19.05
2024-04-13T08:40:23.072Z,19.27
2024-04-13T08:42:53.653Z,19.40
2024-04-13T08:45:24.189Z,19.51
2024-04-13T08:47:51.769Z,19.51
2024-04-13T08:50:19.194Z,19.74
2024-04-13T08:52:57.850Z,19.95
2024-04-13T08:55:25.593Z,19.79
2024-04-13T08:57:52.960Z,19.82
2024-04-13T09:00:20.974Z,19.73
2024-04-13T09:02:48.464Z,19.84
2024-04-13T09:05:16.385Z,19.88
2024-04-13T09:07:46.270Z,19.93
2024-04-13T09:10:16.277Z,20.08
2024-04-13T09:12:43.755Z,20.39
2024-04-13T09:15:11.819Z,20.30
2024-04-13T09:17:40.010Z,20.35
2024-04-13T09:20:09.422Z,20.24
2024-04-13T09:22:37.490Z,20.09
2024-04-13T09:25:04.984Z,20.00
2024-04-13T09:27:34.266Z,20.02
2024-04-13T09:30:09.310Z,19.99
2024-04-13T09:32:36.994Z,19.90
2024-04-13T09:35:11.566Z,19.63
2024-04-13T09:37:39.361Z,19.86
2024-04-13T09:40:07.719Z,20.19
2024-04-13T09:42:35.263Z,20.42
2024-04-13T09:45:12.208Z,20.50
2024-04-13T09:47:39.731Z,20.46
2024-04-13T09:50:07.278Z,20.65
2024-04-13T09:52:35.057Z,20.68
2024-04-13T09:55:02.518Z,20.53
2024-04-13T09:57:29.922Z,21.07
2024-04-13T09:59:57.364Z,21.23
2024-04-13T10:02:24.755Z,21.37
2024-04-13T10:04:52.099Z,21.42
2024-04-13T10:07:19.474Z,21.25
2024-04-13T10:09:48.678Z,21.25
2024-04-13T10:12:21.158Z,21.19
2024-04-13T10:14:48.548Z,21.18
2024-04-13T10:17:16.024Z,21.17
2024-04-13T10:19:46.088Z,21.16
2024-04-13T10:22:23.901Z,20.83
2024-04-13T10:25:03.777Z,20.58
2024-04-13T10:27:32.897Z,20.61
2024-04-13T10:30:00.740Z,20.92
2024-04-13T10:32:28.685Z,20.73
2024-04-13T10:34:59.442Z,20.50
2024-04-13T10:37:27.887Z,20.78
2024-04-13T10:39:59.078Z,20.92
2024-04-13T10:42:42.098Z,21.02
2024-04-13T10:45:16.410Z,21.19
2024-04-13T10:47:44.214Z,21.12
2024-04-13T10:50:12.163Z,21.18
2024-04-13T10:52:39.497Z,21.13
2024-04-13T10:55:07.064Z,21.19
2024-04-13T10:57:34.462Z,21.04
2024-04-13T11:00:02.199Z,21.04
2024-04-13T11:02:29.766Z,20.95
2024-04-13T11:04:57.316Z,20.95
2024-04-13T11:07:24.772Z,21.11
2024-04-13T11:09:52.203Z,20.93
2024-04-13T11:12:19.595Z,20.91
2024-04-13T11:14:48.436Z,20.90
2024-04-13T11:17:16.224Z,20.84
2024-04-13T11:19:43.828Z,20.98
2024-04-13T11:22:11.309Z,20.92
2024-04-13T11:24:39.014Z,20.84
2024-04-13T11:27:06.761Z,21.01
2024-04-13T11:29:34.726Z,20.85
2024-04-13T11:32:02.729Z,20.78
2024-04-13T11:34:30.132Z,20.59
2024-04-13T11:37:04.094Z,20.62
2024-04-13T11:39:38.081Z,20.88
2024-04-13T11:42:07.016Z,21.09
2024-04-13T11:44:37.968Z,21.17
2024-04-13T11:47:05.478Z,21.45
2024-04-13T11:49:35.045Z,21.28
2024-04-13T11:52:04.450Z,21.26
2024-04-13T11:54:32.473Z,21.04
2024-04-13T11:56:59.951Z,21.41
2024-04-13T11:59:27.263Z,21.31
2024-04-13T12:01:55.509Z,21.35
2024-04-13T12:04:23.303Z,21.21
2024-04-13T12:06:50.992Z,21.26
2024-04-13T12:09:18.415Z,21.09
2024-04-13T12:11:45.716Z,21.23
2024-04-13T12:14:15.098Z,21.27
2024-04-13T12:16:45.305Z,21.34
2024-04-13T12:19:12.754Z,21.58
2024-04-13T12:21:40.230Z,21.44
2024-04-13T12:24:07.891Z,21.40
2024-04-13T12:26:35.723Z,21.43
2024-04-13T12:29:03.051Z,21.50
2024-04-13T12:31:30.340Z,21.48
2024-04-13T12:33:57.723Z,21.65
2024-04-13T12:36:25.070Z,21.91
2024-04-13T12:38:52.514Z,21.82
2024-04-13T12:41:19.812Z,21.89
2024-04-13T12:43:47.141Z,21.86
2024-04-13T12:46:14.415Z,22.05
2024-04-13T12:48:42.342Z,22.14
2024-04-13T12:51:09.736Z,22.28
2024-04-13T12:53:37.022Z,22.27
2024-04-13T12:56:04.682Z,22.20
2024-04-13T12:58:31.995Z,22.02
2024-04-13T13:00:59.323Z,22.11
2024-04-13T13:03:27.584Z,21.87
2024-04-13T13:05:55.924Z,21.94
2024-04-13T13:08:24.394Z,21.93
2024-04-13T13:10:51.691Z,21.79
2024-04-13T13:13:18.996Z,21.74
2024-04-13T13:15:46.641Z,21.82
2024-04-13T13:18:14.005Z,21.73
2024-04-13T13:20:44.380Z,21.76
2024-04-13T13:23:11.759Z,21.73
2024-04-13T13:25:39.036Z,21.82
2024-04-13T13:28:07.431Z,21.72
2024-04-13T13:30:38.758Z,21.74
2024-04-13T13:33:06.223Z,21.91
2024-04-13T13:35:33.611Z,22.17
2024-04-13T13:38:01.002Z,22.18
2024-04-13T13:40:29.680Z,22.30
2024-04-13T13:42:57.181Z,22.41
2024-04-13T13:45:24.627Z,22.53
2024-04-13T13:47:52.473Z,22.47
2024-04-13T13:50:20.008Z,22.53
2024-04-13T13:52:50.125Z,22.56
2024-04-13T13:55:19.146Z,22.61
2024-04-13T13:57:46.686Z,22.71
2024-04-13T14:00:14.559Z,22.83
2024-04-13T14:02:41.923Z,22.96
2024-04-13T14:05:09.707Z,23.03
2024-04-13T14:07:37.387Z,23.27
2024-04-13T14:10:05.182Z,23.30
2024-04-13T14:17:32.459Z,26.01
2024-04-13T14:19:59.888Z,23.77
2024-04-13T14:22:28.990Z,23.65
2024-04-13T14:24:55.931Z,23.57
2024-04-13T14:27:23.287Z,23.56
2024-04-13T14:29:50.273Z,23.83
2024-04-13T14:32:17.123Z,23.87
2024-04-13T14:34:44.336Z,24.04
2024-04-13T14:37:11.333Z,24.15
2024-04-13T14:39:39.538Z,24.18
2024-04-13T14:42:07.819Z,24.24
2024-04-13T14:44:36.333Z,24.32
2024-04-13T14:47:05.287Z,24.53
2024-04-13T14:49:32.419Z,24.59
2024-04-13T14:51:59.414Z,24.67
2024-04-13T14:54:27.754Z,24.64
2024-04-13T14:56:54.570Z,24.85
2024-04-13T14:59:21.741Z,24.84
2024-04-13T15:01:48.690Z,24.86
2024-04-13T15:04:15.797Z,24.90
2024-04-13T15:06:42.870Z,25.15
2024-04-13T15:09:09.699Z,25.24
2024-04-13T15:11:37.044Z,25.23
2024-04-13T15:14:03.928Z,25.37
2024-04-13T15:16:30.864Z,25.58
2024-04-13T15:18:58.877Z,25.30
2024-04-13T15:21:26.027Z,25.55
2024-04-13T15:23:58.245Z,25.62
2024-04-13T15:26:43.105Z,25.61
2024-04-13T15:29:32.196Z,25.63
2024-04-13T15:32:00.119Z,25.45
2024-04-13T15:34:27.862Z,25.45
2024-04-13T15:36:55.314Z,25.60
2024-04-13T15:39:23.166Z,25.53
2024-04-13T15:41:50.435Z,25.34
2024-04-13T15:44:20.632Z,25.50
2024-04-13T15:46:48.060Z,25.51
2024-04-13T15:49:30.281Z,25.64
2024-04-13T15:51:57.456Z,25.80
2024-04-13T15:54:24.283Z,25.68
2024-04-13T15:56:51.208Z,25.97
2024-04-13T15:59:17.965Z,25.93
2024-04-13T16:01:46.233Z,26.03
2024-04-13T16:04:13.262Z,26.20
2024-04-13T16:06:41.037Z,25.96
2024-04-13T16:09:08.348Z,25.68
2024-04-13T16:11:35.097Z,25.70
2024-04-13T16:14:02.317Z,25.85
2024-04-13T16:16:32.150Z,25.76
2024-04-13T16:19:01.632Z,25.52
2024-04-13T16:21:29.287Z,25.58
2024-04-13T16:23:56.102Z,25.64
2024-04-13T16:26:23.066Z,25.67
2024-04-13T16:28:49.975Z,25.66
2024-04-13T16:31:16.860Z,25.72
2024-04-13T16:33:43.742Z,25.94
2024-04-13T16:36:10.698Z,25.88
2024-04-13T16:38:37.485Z,26.16
2024-04-13T16:41:04.992Z,26.21
2024-04-13T16:43:34.562Z,26.31
2024-04-13T16:46:01.425Z,26.35
2024-04-13T16:48:28.454Z,26.48
2024-04-13T16:50:59.397Z,27.19
2024-04-13T16:53:26.901Z,27.89
2024-04-13T16:55:53.745Z,27.53
2024-04-13T16:58:20.933Z,27.12
2024-04-13T17:00:48.148Z,26.98
2024-04-13T17:03:15.984Z,26.88
2024-04-13T17:05:43.092Z,26.89
2024-04-13T17:08:10.368Z,27.24
2024-04-13T17:10:37.211Z,26.96
2024-04-13T17:13:04.806Z,27.04
2024-04-13T17:15:31.663Z,26.97
2024-04-13T17:17:59.170Z,26.84
2024-04-13T17:20:26.147Z,27.02
2024-04-13T17:22:53.293Z,27.08
2024-04-13T17:25:22.791Z,27.29
2024-04-13T17:27:50.087Z,27.15
2024-04-13T17:30:17.148Z,27.32
2024-04-13T17:32:43.995Z,27.40
2024-04-13T17:35:10.713Z,27.19
2024-04-13T17:37:37.791Z,27.25
2024-04-13T17:40:06.317Z,27.43
2024-04-13T17:42:33.151Z,27.42
2024-04-13T17:44:59.850Z,27.47
2024-04-13T17:47:26.710Z,27.71
2024-04-13T17:49:54.016Z,27.66
2024-04-13T17:52:20.731Z,27.79
2024-04-13T17:54:47.761Z,27.80
2024-04-13T17:57:14.995Z,28.01
2024-04-13T17:59:41.641Z,28.04
2024-04-13T18:02:08.557Z,28.20
2024-04-13T18:04:36.536Z,28.35
2024-04-13T18:07:03.883Z,28.37
2024-04-13T18:09:30.566Z,28.37
2024-04-13T18:11:57.354Z,28.50
2024-04-13T18:14:24.094Z,28.60
2024-04-13T18:16:50.948Z,28.69
2024-04-13T18:19:17.816Z,28.81
2024-04-13T18:21:44.508Z,28.86
2024-04-13T18:24:14.435Z,29.18
2024-04-13T18:26:41.942Z,29.33
2024-04-13T18:29:08.576Z,29.42
2024-04-13T18:31:37.400Z,29.84
2024-04-13T18:34:06.420Z,29.89
2024-04-13T18:36:33.626Z,30.03
2024-04-13T18:39:00.394Z,29.89
2024-04-13T18:41:27.215Z,30.06
2024-04-13T18:43:54.172Z,30.09
2024-04-13T18:46:20.909Z,30.18
2024-04-13T18:48:48.245Z,30.05
2024-04-13T18:51:15.149Z,30.06
2024-04-13T18:53:42.170Z,30.56
2024-04-13T18:56:11.816Z,30.63
2024-04-13T18:58:38.593Z,30.60
2024-04-13T19:01:08.635Z,30.63
2024-04-13T19:03:42.817Z,30.62
2024-04-13T19:06:16.417Z,30.34
2024-04-13T19:08:43.542Z,30.52
2024-04-13T19:11:10.227Z,30.63
2024-04-13T19:16:22.669Z,31.01
2024-04-13T19:18:49.685Z,31.12
2024-04-13T19:21:16.439Z,30.92
2024-04-13T19:23:43.484Z,30.71
2024-04-13T19:26:10.307Z,30.60
2024-04-13T19:28:37.335Z,30.68
2024-04-13T19:31:04.546Z,30.95
2024-04-13T19:33:31.717Z,31.18
2024-04-13T19:35:58.640Z,31.28
2024-04-13T19:38:26.158Z,31.18
2024-04-13T19:40:53.070Z,31.13
2024-04-13T19:43:20.227Z,31.03
2024-04-13T19:45:47.989Z,31.13
2024-04-13T19:48:15.092Z,31.00
2024-04-13T19:50:42.526Z,31.05
2024-04-13T19:53:10.472Z,30.95
2024-04-13T19:55:37.171Z,30.93
2024-04-13T19:58:04.158Z,31.03
2024-04-13T20:00:31.362Z,31.03
2024-04-13T20:02:58.302Z,31.09
2024-04-13T20:05:25.114Z,31.25
2024-04-13T20:07:51.899Z,31.36
2024-04-13T20:10:18.777Z,31.58
2024-04-13T20:12:47.115Z,31.65
2024-04-13T20:15:32.687Z,31.65
2024-04-13T20:18:18.004Z,31.98
2024-04-13T20:20:44.808Z,32.22
2024-04-13T20:23:11.533Z,32.39
2024-04-13T20:25:39.597Z,32.50
2024-04-13T20:28:06.580Z,32.63
2024-04-13T20:30:34.058Z,32.67
2024-04-13T20:33:01.547Z,32.75
2024-04-13T20:35:28.917Z,33.13
2024-04-13T20:37:56.332Z,33.18
2024-04-13T20:40:23.520Z,33.39
2024-04-13T20:42:50.837Z,33.48
2024-04-13T20:45:18.395Z,33.55
2024-04-13T20:47:45.805Z,33.74
2024-04-13T20:50:13.475Z,33.65
2024-04-13T20:52:52.505Z,33.79
2024-04-13T20:55:25.526Z,33.84
2024-04-13T20:57:54.032Z,33.93
2024-04-13T21:00:21.159Z,34.14
2024-04-13T21:02:48.932Z,34.53
2024-04-13T21:05:16.993Z,34.48
2024-04-13T21:07:44.167Z,34.51
2024-04-13T21:10:11.849Z,34.45
2024-04-13T21:12:39.188Z,34.44
2024-04-13T21:15:07.504Z,34.34
2024-04-13T21:17:34.614Z,34.18
2024-04-13T21:20:01.640Z,34.22
2024-04-13T21:22:29.351Z,34.15
2024-04-13T21:24:57.616Z,34.08
2024-04-13T21:27:24.829Z,34.14
2024-04-13T21:29:51.837Z,34.26
2024-04-13T21:32:20.133Z,34.33
2024-04-13T21:34:50.616Z,34.25
2024-04-13T21:37:18.147Z,34.34
2024-04-13T21:39:45.545Z,34.45
2024-04-13T21:42:13.424Z,34.48
2024-04-13T21:44:40.762Z,34.59
2024-04-13T21:47:09.395Z,34.65
2024-04-13T21:49:37.614Z,34.71
2024-04-13T21:52:05.403Z,34.74
2024-04-13T21:54:32.400Z,34.77
2024-04-13T21:56:59.664Z,34.77
2024-04-13T21:59:27.366Z,34.79
2024-04-13T22:01:54.415Z,34.87
2024-04-13T22:04:23.454Z,34.71
2024-04-13T22:06:50.695Z,34.75
2024-04-13T22:09:17.904Z,34.85
2024-04-13T22:11:49.901Z,35.01
2024-04-13T22:14:17.231Z,35.05
2024-04-13T22:16:44.229Z,34.93
2024-04-13T22:19:11.620Z,34.91
2024-04-13T22:21:38.711Z,35.13
2024-04-13T22:24:06.502Z,35.13
2024-04-13T22:26:35.929Z,35.15
2024-04-13T22:29:03.210Z,35.02
2024-04-13T22:31:30.253Z,35.14
2024-04-13T22:33:58.950Z,35.11
2024-04-13T22:36:31.312Z,35.30
2024-04-13T22:38:58.578Z,35.25
2024-04-13T22:41:25.423Z,35.26
2024-04-13T22:43:52.219Z,35.45
2024-04-13T22:46:19.129Z,35.64
2024-04-13T22:48:47.076Z,35.72
2024-04-13T22:51:14.106Z,36.02
2024-04-13T22:53:41.153Z,36.21
2024-04-13T22:56:08.265Z,36.41
2024-04-13T22:58:35.757Z,36.48
2024-04-13T23:01:03.827Z,36.73
2024-04-13T23:03:31.038Z,36.80
2024-04-13T23:06:00.513Z,36.82
2024-04-13T23:08:27.411Z,36.89
2024-04-13T23:10:54.810Z,36.69
2024-04-13T23:13:21.947Z,36.80
2024-04-13T23:15:49.944Z,36.66
2024-04-13T23:18:21.858Z,36.59
2024-04-13T23:20:52.208Z,36.53
2024-04-13T23:23:19.356Z,36.63
2024-04-13T23:25:47.370Z,36.51
2024-04-13T23:28:14.922Z,36.57
2024-04-13T23:30:42.080Z,36.45
2024-04-13T23:33:10.648Z,36.51
2024-04-13T23:35:37.695Z,36.47
2024-04-13T23:38:04.713Z,36.64
2024-04-13T23:40:31.807Z,36.46
2024-04-13T23:42:58.692Z,36.58
2024-04-13T23:45:26.622Z,36.46
2024-04-13T23:47:53.782Z,36.54
2024-04-13T23:50:22.672Z,36.69
2024-04-13T23:52:49.727Z,36.70
2024-04-13T23:55:17.560Z,36.61
2024-04-13T23:57:45.621Z,36.77
